sensor_id;sensor_type;location;lat;lon;timestamp;P1;durP1;ratioP1;P2;durP2;ratioP2
12181;SDS011;6154;51.550;12.138;2023-04-25T00:00:05;3.33;;;2.30;;
12181;SDS011;6154;51.550;12.138;2023-04-25T00:02:37;5.07;;;2.58;;
12181;SDS011;6154;51.550;12.138;2023-04-25T00:05:06;3.78;;;1.90;;
12181;SDS011;6154;51.550;12.138;2023-04-25T00:07:35;3.55;;;2.58;;
12181;SDS011;6154;51.550;12.138;2023-04-25T00:10:04;2.80;;;2.20;;
12181;SDS011;6154;51.550;12.138;2023-04-25T00:12:33;3.47;;;2.12;;
12181;SDS011;6154;51.550;12.138;2023-04-25T00:15:04;4.03;;;2.78;;
12181;SDS011;6154;51.550;12.138;2023-04-25T00:17:33;4.80;;;2.62;;
12181;SDS011;6154;51.550;12.138;2023-04-25T00:20:02;4.03;;;2.10;;
12181;SDS011;6154;51.550;12.138;2023-04-25T00:22:35;2.17;;;2.03;;
12181;SDS011;6154;51.550;12.138;2023-04-25T00:25:05;2.67;;;2.40;;
12181;SDS011;6154;51.550;12.138;2023-04-25T00:27:33;4.22;;;1.85;;
12181;SDS011;6154;51.550;12.138;2023-04-25T00:30:04;4.37;;;3.00;;
12181;SDS011;6154;51.550;12.138;2023-04-25T00:32:33;3.40;;;2.70;;
12181;SDS011;6154;51.550;12.138;2023-04-25T00:35:01;4.70;;;2.53;;
12181;SDS011;6154;51.550;12.138;2023-04-25T00:37:30;4.45;;;2.42;;
12181;SDS011;6154;51.550;12.138;2023-04-25T00:39:58;2.40;;;1.85;;
12181;SDS011;6154;51.550;12.138;2023-04-25T00:42:26;3.08;;;2.70;;
12181;SDS011;6154;51.550;12.138;2023-04-25T00:44:56;3.37;;;2.37;;
12181;SDS011;6154;51.550;12.138;2023-04-25T00:47:27;3.12;;;2.22;;
12181;SDS011;6154;51.550;12.138;2023-04-25T00:49:56;3.72;;;2.33;;
12181;SDS011;6154;51.550;12.138;2023-04-25T00:52:24;4.87;;;2.50;;
12181;SDS011;6154;51.550;12.138;2023-04-25T00:54:53;4.62;;;2.17;;
12181;SDS011;6154;51.550;12.138;2023-04-25T00:57:21;4.15;;;2.35;;
12181;SDS011;6154;51.550;12.138;2023-04-25T00:59:49;2.62;;;2.42;;
12181;SDS011;6154;51.550;12.138;2023-04-25T01:02:19;2.65;;;2.37;;
12181;SDS011;6154;51.550;12.138;2023-04-25T01:04:49;3.35;;;2.35;;
12181;SDS011;6154;51.550;12.138;2023-04-25T01:07:18;3.15;;;2.25;;
12181;SDS011;6154;51.550;12.138;2023-04-25T01:09:46;5.05;;;2.67;;
12181;SDS011;6154;51.550;12.138;2023-04-25T01:12:15;2.83;;;2.25;;
12181;SDS011;6154;51.550;12.138;2023-04-25T01:14:43;4.53;;;2.42;;
12181;SDS011;6154;51.550;12.138;2023-04-25T01:17:11;3.60;;;2.45;;
12181;SDS011;6154;51.550;12.138;2023-04-25T01:19:40;2.92;;;2.33;;
12181;SDS011;6154;51.550;12.138;2023-04-25T01:22:10;5.82;;;2.33;;
12181;SDS011;6154;51.550;12.138;2023-04-25T01:24:38;3.12;;;2.45;;
12181;SDS011;6154;51.550;12.138;2023-04-25T01:27:07;11.25;;;2.50;;
12181;SDS011;6154;51.550;12.138;2023-04-25T01:29:36;3.85;;;2.47;;
12181;SDS011;6154;51.550;12.138;2023-04-25T01:32:04;7.05;;;2.60;;
12181;SDS011;6154;51.550;12.138;2023-04-25T01:34:33;5.30;;;2.25;;
12181;SDS011;6154;51.550;12.138;2023-04-25T01:37:01;2.67;;;2.42;;
12181;SDS011;6154;51.550;12.138;2023-04-25T01:39:31;3.95;;;2.30;;
12181;SDS011;6154;51.550;12.138;2023-04-25T01:42:00;6.62;;;2.78;;
12181;SDS011;6154;51.550;12.138;2023-04-25T01:44:29;3.00;;;1.90;;
12181;SDS011;6154;51.550;12.138;2023-04-25T01:46:57;3.95;;;2.50;;
12181;SDS011;6154;51.550;12.138;2023-04-25T01:49:27;3.62;;;2.37;;
12181;SDS011;6154;51.550;12.138;2023-04-25T01:51:55;3.47;;;2.42;;
12181;SDS011;6154;51.550;12.138;2023-04-25T01:54:23;3.10;;;2.28;;
12181;SDS011;6154;51.550;12.138;2023-04-25T01:56:55;3.42;;;2.25;;
12181;SDS011;6154;51.550;12.138;2023-04-25T01:59:25;6.25;;;2.67;;
12181;SDS011;6154;51.550;12.138;2023-04-25T02:01:53;3.37;;;2.37;;
12181;SDS011;6154;51.550;12.138;2023-04-25T02:04:22;5.50;;;2.55;;
12181;SDS011;6154;51.550;12.138;2023-04-25T02:06:50;3.40;;;2.20;;
12181;SDS011;6154;51.550;12.138;2023-04-25T02:09:19;4.90;;;2.85;;
12181;SDS011;6154;51.550;12.138;2023-04-25T02:11:48;4.05;;;2.62;;
12181;SDS011;6154;51.550;12.138;2023-04-25T02:14:18;2.72;;;2.30;;
12181;SDS011;6154;51.550;12.138;2023-04-25T02:16:46;3.72;;;2.92;;
12181;SDS011;6154;51.550;12.138;2023-04-25T02:19:15;3.05;;;2.17;;
12181;SDS011;6154;51.550;12.138;2023-04-25T02:21:43;3.67;;;2.17;;
12181;SDS011;6154;51.550;12.138;2023-04-25T02:24:11;6.00;;;2.33;;
12181;SDS011;6154;51.550;12.138;2023-04-25T02:26:39;3.47;;;2.67;;
12181;SDS011;6154;51.550;12.138;2023-04-25T02:29:08;3.70;;;2.20;;
12181;SDS011;6154;51.550;12.138;2023-04-25T02:31:38;3.22;;;2.55;;
12181;SDS011;6154;51.550;12.138;2023-04-25T02:34:06;3.62;;;2.37;;
12181;SDS011;6154;51.550;12.138;2023-04-25T02:36:34;3.60;;;2.25;;
12181;SDS011;6154;51.550;12.138;2023-04-25T02:39:02;3.50;;;2.05;;
12181;SDS011;6154;51.550;12.138;2023-04-25T02:41:31;5.45;;;2.25;;
12181;SDS011;6154;51.550;12.138;2023-04-25T02:43:59;3.53;;;2.55;;
12181;SDS011;6154;51.550;12.138;2023-04-25T02:46:28;2.67;;;1.83;;
12181;SDS011;6154;51.550;12.138;2023-04-25T02:49:06;5.68;;;2.78;;
12181;SDS011;6154;51.550;12.138;2023-04-25T02:51:35;4.25;;;2.42;;
12181;SDS011;6154;51.550;12.138;2023-04-25T02:54:03;4.93;;;2.22;;
12181;SDS011;6154;51.550;12.138;2023-04-25T02:56:34;3.30;;;2.15;;
12181;SDS011;6154;51.550;12.138;2023-04-25T02:59:02;8.30;;;2.60;;
12181;SDS011;6154;51.550;12.138;2023-04-25T03:01:31;3.75;;;2.10;;
12181;SDS011;6154;51.550;12.138;2023-04-25T03:03:59;5.65;;;2.33;;
12181;SDS011;6154;51.550;12.138;2023-04-25T03:06:29;4.28;;;2.20;;
12181;SDS011;6154;51.550;12.138;2023-04-25T03:08:57;6.45;;;2.40;;
12181;SDS011;6154;51.550;12.138;2023-04-25T03:11:25;5.12;;;1.98;;
12181;SDS011;6154;51.550;12.138;2023-04-25T03:13:54;4.65;;;2.10;;
12181;SDS011;6154;51.550;12.138;2023-04-25T03:16:23;7.47;;;2.47;;
12181;SDS011;6154;51.550;12.138;2023-04-25T03:18:52;5.32;;;2.30;;
12181;SDS011;6154;51.550;12.138;2023-04-25T03:21:20;5.07;;;2.30;;
12181;SDS011;6154;51.550;12.138;2023-04-25T03:23:49;4.18;;;2.10;;
12181;SDS011;6154;51.550;12.138;2023-04-25T03:26:18;3.72;;;2.12;;
12181;SDS011;6154;51.550;12.138;2023-04-25T03:28:47;2.80;;;1.85;;
12181;SDS011;6154;51.550;12.138;2023-04-25T03:31:15;3.55;;;2.05;;
12181;SDS011;6154;51.550;12.138;2023-04-25T03:33:44;3.60;;;2.12;;
12181;SDS011;6154;51.550;12.138;2023-04-25T03:36:12;3.22;;;1.98;;
12181;SDS011;6154;51.550;12.138;2023-04-25T03:38:40;5.22;;;2.12;;
12181;SDS011;6154;51.550;12.138;2023-04-25T03:41:10;3.42;;;2.30;;
12181;SDS011;6154;51.550;12.138;2023-04-25T03:43:39;3.95;;;2.25;;
12181;SDS011;6154;51.550;12.138;2023-04-25T03:46:09;4.43;;;2.47;;
12181;SDS011;6154;51.550;12.138;2023-04-25T03:48:37;3.67;;;2.60;;
12181;SDS011;6154;51.550;12.138;2023-04-25T03:51:05;3.78;;;2.22;;
12181;SDS011;6154;51.550;12.138;2023-04-25T03:53:34;4.03;;;2.47;;
12181;SDS011;6154;51.550;12.138;2023-04-25T03:56:04;3.25;;;2.20;;
12181;SDS011;6154;51.550;12.138;2023-04-25T03:58:35;5.03;;;2.20;;
12181;SDS011;6154;51.550;12.138;2023-04-25T04:01:03;5.57;;;2.28;;
12181;SDS011;6154;51.550;12.138;2023-04-25T04:03:35;7.30;;;2.22;;
12181;SDS011;6154;51.550;12.138;2023-04-25T04:06:04;3.03;;;2.08;;
12181;SDS011;6154;51.550;12.138;2023-04-25T04:08:33;3.53;;;2.20;;
12181;SDS011;6154;51.550;12.138;2023-04-25T04:11:02;3.53;;;1.73;;
12181;SDS011;6154;51.550;12.138;2023-04-25T04:13:31;4.78;;;2.30;;
12181;SDS011;6154;51.550;12.138;2023-04-25T04:16:02;4.78;;;2.08;;
12181;SDS011;6154;51.550;12.138;2023-04-25T04:18:31;3.15;;;2.03;;
12181;SDS011;6154;51.550;12.138;2023-04-25T04:21:00;4.28;;;2.10;;
12181;SDS011;6154;51.550;12.138;2023-04-25T04:23:29;4.05;;;2.33;;
12181;SDS011;6154;51.550;12.138;2023-04-25T04:25:58;7.30;;;2.35;;
12181;SDS011;6154;51.550;12.138;2023-04-25T04:28:26;5.43;;;1.75;;
12181;SDS011;6154;51.550;12.138;2023-04-25T04:30:54;4.90;;;2.20;;
12181;SDS011;6154;51.550;12.138;2023-04-25T04:33:25;5.32;;;1.98;;
12181;SDS011;6154;51.550;12.138;2023-04-25T04:35:54;4.37;;;1.90;;
12181;SDS011;6154;51.550;12.138;2023-04-25T04:38:22;6.15;;;2.75;;
12181;SDS011;6154;51.550;12.138;2023-04-25T04:40:51;5.10;;;2.42;;
12181;SDS011;6154;51.550;12.138;2023-04-25T04:43:20;5.97;;;2.10;;
12181;SDS011;6154;51.550;12.138;2023-04-25T04:45:50;8.13;;;2.00;;
12181;SDS011;6154;51.550;12.138;2023-04-25T04:48:19;3.42;;;2.12;;
12181;SDS011;6154;51.550;12.138;2023-04-25T04:50:53;4.18;;;2.12;;
12181;SDS011;6154;51.550;12.138;2023-04-25T04:53:21;3.70;;;2.33;;
12181;SDS011;6154;51.550;12.138;2023-04-25T04:55:50;7.10;;;2.47;;
12181;SDS011;6154;51.550;12.138;2023-04-25T04:58:18;5.43;;;2.33;;
12181;SDS011;6154;51.550;12.138;2023-04-25T05:00:47;6.93;;;2.55;;
12181;SDS011;6154;51.550;12.138;2023-04-25T05:03:15;5.93;;;2.62;;
12181;SDS011;6154;51.550;12.138;2023-04-25T05:05:47;8.63;;;2.53;;
12181;SDS011;6154;51.550;12.138;2023-04-25T05:08:17;5.45;;;2.65;;
12181;SDS011;6154;51.550;12.138;2023-04-25T05:10:45;6.85;;;2.47;;
12181;SDS011;6154;51.550;12.138;2023-04-25T05:13:14;5.80;;;2.58;;
12181;SDS011;6154;51.550;12.138;2023-04-25T05:15:42;3.85;;;2.60;;
12181;SDS011;6154;51.550;12.138;2023-04-25T05:18:11;5.37;;;2.65;;
12181;SDS011;6154;51.550;12.138;2023-04-25T05:20:39;6.53;;;3.30;;
12181;SDS011;6154;51.550;12.138;2023-04-25T05:23:09;5.45;;;2.40;;
12181;SDS011;6154;51.550;12.138;2023-04-25T05:25:38;5.07;;;2.58;;
12181;SDS011;6154;51.550;12.138;2023-04-25T05:28:07;5.70;;;2.08;;
12181;SDS011;6154;51.550;12.138;2023-04-25T05:30:36;10.00;;;3.25;;
12181;SDS011;6154;51.550;12.138;2023-04-25T05:33:04;5.50;;;2.85;;
12181;SDS011;6154;51.550;12.138;2023-04-25T05:35:33;3.92;;;2.92;;
12181;SDS011;6154;51.550;12.138;2023-04-25T05:38:02;7.68;;;3.17;;
12181;SDS011;6154;51.550;12.138;2023-04-25T05:40:30;7.45;;;3.47;;
12181;SDS011;6154;51.550;12.138;2023-04-25T05:43:00;10.48;;;3.65;;
12181;SDS011;6154;51.550;12.138;2023-04-25T05:45:29;5.85;;;3.40;;
12181;SDS011;6154;51.550;12.138;2023-04-25T05:47:58;7.62;;;3.80;;
12181;SDS011;6154;51.550;12.138;2023-04-25T05:50:27;7.80;;;3.72;;
12181;SDS011;6154;51.550;12.138;2023-04-25T05:52:58;6.53;;;3.47;;
12181;SDS011;6154;51.550;12.138;2023-04-25T05:55:27;6.32;;;3.30;;
12181;SDS011;6154;51.550;12.138;2023-04-25T05:57:57;7.45;;;3.22;;
12181;SDS011;6154;51.550;12.138;2023-04-25T06:00:27;4.07;;;2.80;;
12181;SDS011;6154;51.550;12.138;2023-04-25T06:02:55;6.28;;;2.95;;
12181;SDS011;6154;51.550;12.138;2023-04-25T06:05:24;8.43;;;2.78;;
12181;SDS011;6154;51.550;12.138;2023-04-25T06:07:52;8.43;;;3.00;;
12181;SDS011;6154;51.550;12.138;2023-04-25T06:10:21;4.82;;;3.08;;
12181;SDS011;6154;51.550;12.138;2023-04-25T06:12:49;7.37;;;3.28;;
12181;SDS011;6154;51.550;12.138;2023-04-25T06:15:17;5.32;;;3.40;;
12181;SDS011;6154;51.550;12.138;2023-04-25T06:17:50;5.78;;;2.97;;
12181;SDS011;6154;51.550;12.138;2023-04-25T06:20:18;6.00;;;2.62;;
12181;SDS011;6154;51.550;12.138;2023-04-25T06:22:51;8.63;;;2.67;;
12181;SDS011;6154;51.550;12.138;2023-04-25T06:25:20;4.70;;;2.58;;
12181;SDS011;6154;51.550;12.138;2023-04-25T06:27:48;3.00;;;2.62;;
12181;SDS011;6154;51.550;12.138;2023-04-25T06:30:16;5.28;;;2.55;;
12181;SDS011;6154;51.550;12.138;2023-04-25T06:32:51;7.43;;;3.08;;
12181;SDS011;6154;51.550;12.138;2023-04-25T06:35:20;4.90;;;2.87;;
12181;SDS011;6154;51.550;12.138;2023-04-25T06:37:48;3.05;;;2.50;;
12181;SDS011;6154;51.550;12.138;2023-04-25T06:40:17;7.80;;;2.22;;
12181;SDS011;6154;51.550;12.138;2023-04-25T06:42:46;6.40;;;3.20;;
12181;SDS011;6154;51.550;12.138;2023-04-25T06:45:16;8.90;;;2.62;;
12181;SDS011;6154;51.550;12.138;2023-04-25T06:47:44;5.28;;;2.35;;
12181;SDS011;6154;51.550;12.138;2023-04-25T06:50:14;4.82;;;3.10;;
12181;SDS011;6154;51.550;12.138;2023-04-25T06:52:42;2.87;;;2.22;;
12181;SDS011;6154;51.550;12.138;2023-04-25T06:55:10;4.10;;;2.05;;
12181;SDS011;6154;51.550;12.138;2023-04-25T06:57:40;7.43;;;2.28;;
12181;SDS011;6154;51.550;12.138;2023-04-25T07:00:10;3.95;;;2.25;;
12181;SDS011;6154;51.550;12.138;2023-04-25T07:02:40;2.75;;;2.12;;
12181;SDS011;6154;51.550;12.138;2023-04-25T07:05:10;5.40;;;1.95;;
12181;SDS011;6154;51.550;12.138;2023-04-25T07:07:39;2.00;;;1.20;;
12181;SDS011;6154;51.550;12.138;2023-04-25T07:10:08;4.12;;;1.70;;
12181;SDS011;6154;51.550;12.138;2023-04-25T07:12:36;7.62;;;1.35;;
12181;SDS011;6154;51.550;12.138;2023-04-25T07:15:05;1.48;;;0.90;;
12181;SDS011;6154;51.550;12.138;2023-04-25T07:17:38;5.97;;;1.17;;
12181;SDS011;6154;51.550;12.138;2023-04-25T07:20:07;7.10;;;2.17;;
12181;SDS011;6154;51.550;12.138;2023-04-25T07:22:37;2.65;;;1.27;;
12181;SDS011;6154;51.550;12.138;2023-04-25T07:25:07;1.77;;;1.33;;
12181;SDS011;6154;51.550;12.138;2023-04-25T07:27:36;2.70;;;1.48;;
12181;SDS011;6154;51.550;12.138;2023-04-25T07:30:05;3.08;;;1.73;;
12181;SDS011;6154;51.550;12.138;2023-04-25T07:32:34;5.25;;;1.20;;
12181;SDS011;6154;51.550;12.138;2023-04-25T07:35:03;8.07;;;1.80;;
12181;SDS011;6154;51.550;12.138;2023-04-25T07:37:31;5.25;;;1.25;;
12181;SDS011;6154;51.550;12.138;2023-04-25T07:40:00;9.18;;;1.75;;
12181;SDS011;6154;51.550;12.138;2023-04-25T07:42:32;5.15;;;2.08;;
12181;SDS011;6154;51.550;12.138;2023-04-25T07:45:01;4.35;;;1.58;;
12181;SDS011;6154;51.550;12.138;2023-04-25T07:47:30;3.25;;;1.25;;
12181;SDS011;6154;51.550;12.138;2023-04-25T07:49:58;3.83;;;1.50;;
12181;SDS011;6154;51.550;12.138;2023-04-25T07:52:28;6.45;;;1.58;;
12181;SDS011;6154;51.550;12.138;2023-04-25T07:54:56;5.30;;;1.37;;
12181;SDS011;6154;51.550;12.138;2023-04-25T07:57:26;6.43;;;1.60;;
12181;SDS011;6154;51.550;12.138;2023-04-25T07:59:56;3.80;;;1.87;;
12181;SDS011;6154;51.550;12.138;2023-04-25T08:02:25;6.37;;;1.48;;
12181;SDS011;6154;51.550;12.138;2023-04-25T08:04:55;2.90;;;1.40;;
12181;SDS011;6154;51.550;12.138;2023-04-25T08:07:24;3.97;;;1.42;;
12181;SDS011;6154;51.550;12.138;2023-04-25T08:09:53;6.37;;;1.45;;
12181;SDS011;6154;51.550;12.138;2023-04-25T08:12:22;4.68;;;1.40;;
12181;SDS011;6154;51.550;12.138;2023-04-25T08:14:50;7.65;;;1.70;;
12181;SDS011;6154;51.550;12.138;2023-04-25T08:17:20;6.05;;;1.37;;
12181;SDS011;6154;51.550;12.138;2023-04-25T08:19:49;4.75;;;1.60;;
12181;SDS011;6154;51.550;12.138;2023-04-25T08:22:17;6.28;;;1.27;;
12181;SDS011;6154;51.550;12.138;2023-04-25T08:24:46;7.35;;;1.60;;
12181;SDS011;6154;51.550;12.138;2023-04-25T08:27:15;7.50;;;1.80;;
12181;SDS011;6154;51.550;12.138;2023-04-25T08:29:45;2.95;;;1.27;;
12181;SDS011;6154;51.550;12.138;2023-04-25T08:32:14;9.02;;;1.75;;
12181;SDS011;6154;51.550;12.138;2023-04-25T08:34:45;4.93;;;1.90;;
12181;SDS011;6154;51.550;12.138;2023-04-25T08:37:14;5.07;;;1.37;;
12181;SDS011;6154;51.550;12.138;2023-04-25T08:39:42;5.12;;;1.37;;
12181;SDS011;6154;51.550;12.138;2023-04-25T08:42:12;5.45;;;1.50;;
12181;SDS011;6154;51.550;12.138;2023-04-25T08:44:42;3.92;;;1.23;;
12181;SDS011;6154;51.550;12.138;2023-04-25T08:47:12;6.55;;;1.48;;
12181;SDS011;6154;51.550;12.138;2023-04-25T08:49:42;2.53;;;1.20;;
12181;SDS011;6154;51.550;12.138;2023-04-25T08:52:14;4.22;;;1.33;;
12181;SDS011;6154;51.550;12.138;2023-04-25T08:54:49;9.95;;;2.10;;
12181;SDS011;6154;51.550;12.138;2023-04-25T08:57:19;6.28;;;1.60;;
12181;SDS011;6154;51.550;12.138;2023-04-25T08:59:47;6.45;;;2.00;;
12181;SDS011;6154;51.550;12.138;2023-04-25T09:02:17;4.28;;;1.67;;
12181;SDS011;6154;51.550;12.138;2023-04-25T09:04:49;6.15;;;1.58;;
12181;SDS011;6154;51.550;12.138;2023-04-25T09:07:17;9.13;;;1.90;;
12181;SDS011;6154;51.550;12.138;2023-04-25T09:09:49;6.60;;;1.70;;
12181;SDS011;6154;51.550;12.138;2023-04-25T09:12:18;6.70;;;2.42;;
12181;SDS011;6154;51.550;12.138;2023-04-25T09:15:01;7.87;;;3.55;;
12181;SDS011;6154;51.550;12.138;2023-04-25T09:17:33;7.37;;;2.15;;
12181;SDS011;6154;51.550;12.138;2023-04-25T09:20:07;7.05;;;1.58;;
12181;SDS011;6154;51.550;12.138;2023-04-25T09:22:37;3.95;;;1.55;;
12181;SDS011;6154;51.550;12.138;2023-04-25T09:25:09;6.12;;;1.75;;
12181;SDS011;6154;51.550;12.138;2023-04-25T09:27:48;7.10;;;2.08;;
12181;SDS011;6154;51.550;12.138;2023-04-25T09:30:28;6.00;;;2.10;;
12181;SDS011;6154;51.550;12.138;2023-04-25T09:32:59;9.90;;;2.15;;
12181;SDS011;6154;51.550;12.138;2023-04-25T09:35:36;5.40;;;2.05;;
12181;SDS011;6154;51.550;12.138;2023-04-25T09:38:07;5.95;;;2.55;;
12181;SDS011;6154;51.550;12.138;2023-04-25T09:40:41;7.60;;;2.10;;
12181;SDS011;6154;51.550;12.138;2023-04-25T09:43:18;6.60;;;2.53;;
12181;SDS011;6154;51.550;12.138;2023-04-25T09:45:48;5.72;;;2.87;;
12181;SDS011;6154;51.550;12.138;2023-04-25T09:48:19;7.55;;;2.45;;
12181;SDS011;6154;51.550;12.138;2023-04-25T09:50:58;6.35;;;2.33;;
12181;SDS011;6154;51.550;12.138;2023-04-25T09:53:32;7.90;;;2.55;;
12181;SDS011;6154;51.550;12.138;2023-04-25T09:56:03;8.32;;;2.85;;
12181;SDS011;6154;51.550;12.138;2023-04-25T09:58:34;4.10;;;2.17;;
12181;SDS011;6154;51.550;12.138;2023-04-25T10:01:04;8.20;;;2.67;;
12181;SDS011;6154;51.550;12.138;2023-04-25T10:03:35;6.37;;;2.67;;
12181;SDS011;6154;51.550;12.138;2023-04-25T10:06:07;8.25;;;3.35;;
12181;SDS011;6154;51.550;12.138;2023-04-25T10:08:38;9.02;;;3.55;;
12181;SDS011;6154;51.550;12.138;2023-04-25T10:11:07;6.28;;;2.78;;
12181;SDS011;6154;51.550;12.138;2023-04-25T10:13:36;9.25;;;3.25;;
12181;SDS011;6154;51.550;12.138;2023-04-25T10:16:04;4.62;;;2.30;;
12181;SDS011;6154;51.550;12.138;2023-04-25T10:18:32;7.95;;;3.20;;
12181;SDS011;6154;51.550;12.138;2023-04-25T10:21:01;6.93;;;3.12;;
12181;SDS011;6154;51.550;12.138;2023-04-25T10:23:34;6.40;;;2.62;;
12181;SDS011;6154;51.550;12.138;2023-04-25T10:26:02;4.57;;;2.40;;
12181;SDS011;6154;51.550;12.138;2023-04-25T10:28:33;9.93;;;2.58;;
12181;SDS011;6154;51.550;12.138;2023-04-25T10:31:26;5.43;;;2.50;;
12181;SDS011;6154;51.550;12.138;2023-04-25T10:33:55;4.82;;;2.55;;
12181;SDS011;6154;51.550;12.138;2023-04-25T10:36:23;14.27;;;2.80;;
12181;SDS011;6154;51.550;12.138;2023-04-25T10:38:54;5.82;;;2.15;;
12181;SDS011;6154;51.550;12.138;2023-04-25T10:41:22;4.85;;;2.20;;
12181;SDS011;6154;51.550;12.138;2023-04-25T10:43:50;4.20;;;2.40;;
12181;SDS011;6154;51.550;12.138;2023-04-25T10:46:29;6.32;;;2.10;;
12181;SDS011;6154;51.550;12.138;2023-04-25T10:48:59;4.90;;;2.60;;
12181;SDS011;6154;51.550;12.138;2023-04-25T10:51:28;6.28;;;2.20;;
12181;SDS011;6154;51.550;12.138;2023-04-25T10:54:18;4.93;;;2.05;;
12181;SDS011;6154;51.550;12.138;2023-04-25T10:56:48;7.15;;;2.58;;
12181;SDS011;6154;51.550;12.138;2023-04-25T10:59:18;3.67;;;2.08;;
12181;SDS011;6154;51.550;12.138;2023-04-25T11:01:49;2.92;;;1.87;;
12181;SDS011;6154;51.550;12.138;2023-04-25T11:04:20;9.50;;;1.92;;
12181;SDS011;6154;51.550;12.138;2023-04-25T11:07:07;8.63;;;2.20;;
12181;SDS011;6154;51.550;12.138;2023-04-25T11:09:41;4.35;;;2.00;;
12181;SDS011;6154;51.550;12.138;2023-04-25T11:12:09;7.68;;;1.87;;
12181;SDS011;6154;51.550;12.138;2023-04-25T11:14:41;5.60;;;1.87;;
12181;SDS011;6154;51.550;12.138;2023-04-25T11:17:09;10.75;;;2.45;;
12181;SDS011;6154;51.550;12.138;2023-04-25T11:19:38;11.23;;;2.40;;
12181;SDS011;6154;51.550;12.138;2023-04-25T11:22:06;7.47;;;1.48;;
12181;SDS011;6154;51.550;12.138;2023-04-25T11:24:35;9.93;;;2.20;;
12181;SDS011;6154;51.550;12.138;2023-04-25T11:27:04;4.32;;;1.70;;
12181;SDS011;6154;51.550;12.138;2023-04-25T11:29:33;3.67;;;1.23;;
12181;SDS011;6154;51.550;12.138;2023-04-25T11:32:04;2.05;;;1.23;;
12181;SDS011;6154;51.550;12.138;2023-04-25T11:34:32;4.55;;;1.30;;
12181;SDS011;6154;51.550;12.138;2023-04-25T11:37:01;6.07;;;1.30;;
12181;SDS011;6154;51.550;12.138;2023-04-25T11:39:30;10.05;;;1.50;;
12181;SDS011;6154;51.550;12.138;2023-04-25T11:41:58;4.20;;;1.30;;
12181;SDS011;6154;51.550;12.138;2023-04-25T11:44:29;4.22;;;1.05;;
12181;SDS011;6154;51.550;12.138;2023-04-25T11:46:58;4.50;;;1.20;;
12181;SDS011;6154;51.550;12.138;2023-04-25T11:49:31;6.47;;;2.25;;
12181;SDS011;6154;51.550;12.138;2023-04-25T11:52:02;4.90;;;1.65;;
12181;SDS011;6154;51.550;12.138;2023-04-25T11:54:30;5.10;;;1.52;;
12181;SDS011;6154;51.550;12.138;2023-04-25T11:56:58;4.30;;;1.40;;
12181;SDS011;6154;51.550;12.138;2023-04-25T11:59:28;3.12;;;1.58;;
12181;SDS011;6154;51.550;12.138;2023-04-25T12:01:56;3.28;;;1.60;;
12181;SDS011;6154;51.550;12.138;2023-04-25T12:04:25;5.82;;;1.33;;
12181;SDS011;6154;51.550;12.138;2023-04-25T12:06:55;3.05;;;1.25;;
12181;SDS011;6154;51.550;12.138;2023-04-25T12:09:27;2.15;;;1.15;;
12181;SDS011;6154;51.550;12.138;2023-04-25T12:11:57;4.97;;;1.48;;
12181;SDS011;6154;51.550;12.138;2023-04-25T12:14:30;3.42;;;1.10;;
12181;SDS011;6154;51.550;12.138;2023-04-25T12:17:00;4.12;;;1.33;;
12181;SDS011;6154;51.550;12.138;2023-04-25T12:19:31;8.73;;;1.12;;
12181;SDS011;6154;51.550;12.138;2023-04-25T12:22:03;8.00;;;1.37;;
12181;SDS011;6154;51.550;12.138;2023-04-25T12:24:45;2.90;;;1.55;;
12181;SDS011;6154;51.550;12.138;2023-04-25T12:27:14;4.62;;;1.20;;
12181;SDS011;6154;51.550;12.138;2023-04-25T12:29:52;4.55;;;0.90;;
12181;SDS011;6154;51.550;12.138;2023-04-25T12:32:21;1.65;;;1.00;;
12181;SDS011;6154;51.550;12.138;2023-04-25T12:34:49;5.00;;;0.98;;
12181;SDS011;6154;51.550;12.138;2023-04-25T12:37:19;5.72;;;1.40;;
12181;SDS011;6154;51.550;12.138;2023-04-25T12:39:47;3.53;;;1.10;;
12181;SDS011;6154;51.550;12.138;2023-04-25T12:42:15;2.15;;;1.20;;
12181;SDS011;6154;51.550;12.138;2023-04-25T12:44:44;2.85;;;1.52;;
12181;SDS011;6154;51.550;12.138;2023-04-25T12:47:13;3.28;;;1.35;;
12181;SDS011;6154;51.550;12.138;2023-04-25T12:49:41;6.03;;;1.45;;
12181;SDS011;6154;51.550;12.138;2023-04-25T12:52:09;4.80;;;1.08;;
12181;SDS011;6154;51.550;12.138;2023-04-25T12:54:39;7.18;;;1.48;;
12181;SDS011;6154;51.550;12.138;2023-04-25T12:57:07;3.62;;;1.60;;
12181;SDS011;6154;51.550;12.138;2023-04-25T12:59:35;3.28;;;1.30;;
12181;SDS011;6154;51.550;12.138;2023-04-25T13:02:03;3.83;;;1.58;;
12181;SDS011;6154;51.550;12.138;2023-04-25T13:04:32;4.12;;;1.02;;
12181;SDS011;6154;51.550;12.138;2023-04-25T13:07:00;3.45;;;1.30;;
12181;SDS011;6154;51.550;12.138;2023-04-25T13:09:28;2.60;;;0.82;;
12181;SDS011;6154;51.550;12.138;2023-04-25T13:11:58;3.45;;;1.27;;
12181;SDS011;6154;51.550;12.138;2023-04-25T13:14:26;2.85;;;1.08;;
12181;SDS011;6154;51.550;12.138;2023-04-25T13:16:54;6.00;;;1.37;;
12181;SDS011;6154;51.550;12.138;2023-04-25T13:19:23;2.72;;;1.10;;
12181;SDS011;6154;51.550;12.138;2023-04-25T13:21:52;5.20;;;1.00;;
12181;SDS011;6154;51.550;12.138;2023-04-25T13:24:20;9.50;;;1.60;;
12181;SDS011;6154;51.550;12.138;2023-04-25T13:26:48;3.65;;;1.27;;
12181;SDS011;6154;51.550;12.138;2023-04-25T13:29:18;6.80;;;1.27;;
12181;SDS011;6154;51.550;12.138;2023-04-25T13:31:46;5.25;;;1.35;;
12181;SDS011;6154;51.550;12.138;2023-04-25T13:34:14;4.53;;;0.90;;
12181;SDS011;6154;51.550;12.138;2023-04-25T13:36:42;5.03;;;1.25;;
12181;SDS011;6154;51.550;12.138;2023-04-25T13:39:11;1.00;;;0.90;;
12181;SDS011;6154;51.550;12.138;2023-04-25T13:41:39;3.85;;;1.05;;
12181;SDS011;6154;51.550;12.138;2023-04-25T13:44:07;3.30;;;1.20;;
12181;SDS011;6154;51.550;12.138;2023-04-25T13:46:37;2.78;;;0.85;;
12181;SDS011;6154;51.550;12.138;2023-04-25T13:49:08;1.95;;;0.90;;
12181;SDS011;6154;51.550;12.138;2023-04-25T13:51:39;1.20;;;0.80;;
12181;SDS011;6154;51.550;12.138;2023-04-25T13:54:08;1.27;;;0.60;;
12181;SDS011;6154;51.550;12.138;2023-04-25T13:56:37;2.10;;;0.85;;
12181;SDS011;6154;51.550;12.138;2023-04-25T13:59:05;4.60;;;1.20;;
12181;SDS011;6154;51.550;12.138;2023-04-25T14:01:33;3.75;;;0.93;;
12181;SDS011;6154;51.550;12.138;2023-04-25T14:04:04;9.98;;;1.40;;
12181;SDS011;6154;51.550;12.138;2023-04-25T14:06:32;4.93;;;1.48;;
12181;SDS011;6154;51.550;12.138;2023-04-25T14:09:00;8.88;;;1.30;;
12181;SDS011;6154;51.550;12.138;2023-04-25T14:11:30;1.37;;;1.00;;
12181;SDS011;6154;51.550;12.138;2023-04-25T14:14:17;2.42;;;1.00;;
12181;SDS011;6154;51.550;12.138;2023-04-25T14:17:04;2.55;;;1.15;;
12181;SDS011;6154;51.550;12.138;2023-04-25T14:19:53;4.20;;;1.20;;
12181;SDS011;6154;51.550;12.138;2023-04-25T14:22:40;8.02;;;1.27;;
12181;SDS011;6154;51.550;12.138;2023-04-25T14:25:29;7.05;;;1.23;;
12181;SDS011;6154;51.550;12.138;2023-04-25T14:28:17;3.45;;;0.80;;
12181;SDS011;6154;51.550;12.138;2023-04-25T14:31:03;6.05;;;1.40;;
12181;SDS011;6154;51.550;12.138;2023-04-25T14:33:50;5.93;;;1.20;;
12181;SDS011;6154;51.550;12.138;2023-04-25T14:36:39;3.58;;;1.25;;
12181;SDS011;6154;51.550;12.138;2023-04-25T14:39:26;2.80;;;1.15;;
12181;SDS011;6154;51.550;12.138;2023-04-25T14:42:13;7.78;;;1.27;;
12181;SDS011;6154;51.550;12.138;2023-04-25T14:44:41;6.32;;;1.15;;
12181;SDS011;6154;51.550;12.138;2023-04-25T14:47:09;5.87;;;1.12;;
12181;SDS011;6154;51.550;12.138;2023-04-25T14:49:37;1.17;;;1.00;;
12181;SDS011;6154;51.550;12.138;2023-04-25T14:52:07;7.55;;;1.33;;
12181;SDS011;6154;51.550;12.138;2023-04-25T14:54:35;3.35;;;1.08;;
12181;SDS011;6154;51.550;12.138;2023-04-25T14:57:03;2.45;;;1.20;;
12181;SDS011;6154;51.550;12.138;2023-04-25T14:59:32;3.15;;;1.23;;
12181;SDS011;6154;51.550;12.138;2023-04-25T15:02:00;5.28;;;1.00;;
12181;SDS011;6154;51.550;12.138;2023-04-25T15:04:48;6.80;;;1.40;;